sensor_id;sensor_type;location;lat;lon;timestamp;pressure;altitude;pressure_sealevel;temperature;humidity
41254;BME280;26987;59.928;30.306;2023-06-05T00:01:50;101291.59;;;8.99;100.00
41254;BME280;26987;59.928;30.306;2023-06-05T00:04:18;101294.44;;;8.97;100.00
41254;BME280;26987;59.928;30.306;2023-06-05T00:06:48;101279.66;;;8.86;100.00
41254;BME280;26987;59.928;30.306;2023-06-05T00:09:17;101285.69;;;8.88;100.00
41254;BME280;26987;59.928;30.306;2023-06-05T00:11:45;101289.66;;;8.92;100.00
41254;BME280;26987;59.928;30.306;2023-06-05T00:14:12;101287.63;;;8.94;100.00
41254;BME280;26987;59.928;30.306;2023-06-05T00:16:41;101287.63;;;8.94;100.00
41254;BME280;26987;59.928;30.306;2023-06-05T00:19:09;101282.09;;;8.96;100.00
41254;BME280;26987;59.928;30.306;2023-06-05T00:21:37;101288.75;;;9.00;100.00
41254;BME280;26987;59.928;30.306;2023-06-05T00:24:07;101286.50;;;9.04;100.00
41254;BME280;26987;59.928;30.306;2023-06-05T00:26:35;101286.16;;;9.07;100.00
41254;BME280;26987;59.928;30.306;2023-06-05T00:29:03;101294.84;;;9.09;100.00
41254;BME280;26987;59.928;30.306;2023-06-05T00:31:33;101304.81;;;9.15;100.00
41254;BME280;26987;59.928;30.306;2023-06-05T00:34:01;101302.41;;;9.20;100.00
41254;BME280;26987;59.928;30.306;2023-06-05T00:36:29;101308.66;;;9.28;100.00
41254;BME280;26987;59.928;30.306;2023-06-05T00:38:59;101309.63;;;9.35;100.00
41254;BME280;26987;59.928;30.306;2023-06-05T00:41:28;101306.00;;;9.43;100.00
41254;BME280;26987;59.928;30.306;2023-06-05T00:43:57;101306.09;;;9.50;100.00
41254;BME280;26987;59.928;30.306;2023-06-05T00:46:25;101307.19;;;9.55;100.00
41254;BME280;26987;59.928;30.306;2023-06-05T00:48:53;101309.97;;;9.62;100.00
41254;BME280;26987;59.928;30.306;2023-06-05T00:51:21;101311.63;;;9.63;100.00
41254;BME280;26987;59.928;30.306;2023-06-05T00:53:49;101317.22;;;9.68;100.00
41254;BME280;26987;59.928;30.306;2023-06-05T00:56:18;101313.38;;;9.71;100.00
41254;BME280;26987;59.928;30.306;2023-06-05T00:58:48;101316.31;;;9.76;100.00
41254;BME280;26987;59.928;30.306;2023-06-05T01:01:17;101312.06;;;9.82;100.00
41254;BME280;26987;59.928;30.306;2023-06-05T01:03:47;101315.56;;;9.82;100.00
41254;BME280;26987;59.928;30.306;2023-06-05T01:06:15;101317.50;;;9.89;100.00
41254;BME280;26987;59.928;30.306;2023-06-05T01:08:44;101307.34;;;9.84;100.00
41254;BME280;26987;59.928;30.306;2023-06-05T01:11:18;101301.22;;;9.90;100.00
41254;BME280;26987;59.928;30.306;2023-06-05T01:13:54;101318.47;;;10.03;100.00
41254;BME280;26987;59.928;30.306;2023-06-05T01:16:24;101323.66;;;10.04;100.00
41254;BME280;26987;59.928;30.306;2023-06-05T01:18:57;101311.44;;;10.02;100.00
41254;BME280;26987;59.928;30.306;2023-06-05T01:21:29;101322.69;;;10.12;100.00
41254;BME280;26987;59.928;30.306;2023-06-05T01:23:59;101316.13;;;10.15;100.00
41254;BME280;26987;59.928;30.306;2023-06-05T01:26:31;101319.72;;;10.22;100.00
41254;BME280;26987;59.928;30.306;2023-06-05T01:29:04;101323.28;;;10.29;100.00
41254;BME280;26987;59.928;30.306;2023-06-05T01:31:34;101315.91;;;10.31;100.00
41254;BME280;26987;59.928;30.306;2023-06-05T01:34:06;101225.44;;;9.75;100.00
41254;BME280;26987;59.928;30.306;2023-06-05T01:36:38;101303.16;;;10.18;100.00
41254;BME280;26987;59.928;30.306;2023-06-05T01:39:09;101321.31;;;10.38;100.00
41254;BME280;26987;59.928;30.306;2023-06-05T01:41:39;101323.19;;;10.38;100.00
41254;BME280;26987;59.928;30.306;2023-06-05T01:44:07;101336.81;;;10.43;100.00
41254;BME280;26987;59.928;30.306;2023-06-05T01:46:36;101331.28;;;10.44;100.00
41254;BME280;26987;59.928;30.306;2023-06-05T01:49:04;101332.56;;;10.49;100.00
41254;BME280;26987;59.928;30.306;2023-06-05T01:51:32;101335.25;;;10.49;100.00
41254;BME280;26987;59.928;30.306;2023-06-05T01:54:00;101328.69;;;10.51;100.00
41254;BME280;26987;59.928;30.306;2023-06-05T01:56:29;101334.09;;;10.58;100.00
41254;BME280;26987;59.928;30.306;2023-06-05T01:58:59;101330.41;;;10.59;99.64
41254;BME280;26987;59.928;30.306;2023-06-05T02:01:33;101333.34;;;10.64;97.85
41254;BME280;26987;59.928;30.306;2023-06-05T02:04:02;101330.28;;;10.67;96.54
41254;BME280;26987;59.928;30.306;2023-06-05T02:06:32;101335.88;;;10.72;95.38
41254;BME280;26987;59.928;30.306;2023-06-05T02:09:08;101334.69;;;10.75;94.45
41254;BME280;26987;59.928;30.306;2023-06-05T02:11:38;101340.94;;;10.82;93.69
41254;BME280;26987;59.928;30.306;2023-06-05T02:14:08;101341.53;;;10.84;92.06
41254;BME280;26987;59.928;30.306;2023-06-05T02:16:40;101339.97;;;10.90;91.18
41254;BME280;26987;59.928;30.306;2023-06-05T02:19:08;101341.41;;;10.93;90.65
41254;BME280;26987;59.928;30.306;2023-06-05T02:21:37;101341.06;;;11.03;89.32
41254;BME280;26987;59.928;30.306;2023-06-05T02:24:05;101331.84;;;11.12;88.95
41254;BME280;26987;59.928;30.306;2023-06-05T02:26:33;101323.13;;;11.39;86.74
41254;BME280;26987;59.928;30.306;2023-06-05T02:29:02;101348.13;;;11.75;85.41
41254;BME280;26987;59.928;30.306;2023-06-05T02:31:30;101350.16;;;12.15;82.71
41254;BME280;26987;59.928;30.306;2023-06-05T02:33:58;101358.47;;;12.33;80.83
41254;BME280;26987;59.928;30.306;2023-06-05T02:36:26;101352.66;;;12.30;80.48
41254;BME280;26987;59.928;30.306;2023-06-05T02:38:59;101364.06;;;12.32;80.11
41254;BME280;26987;59.928;30.306;2023-06-05T02:41:28;101350.63;;;12.32;79.68
41254;BME280;26987;59.928;30.306;2023-06-05T02:43:56;101356.66;;;12.74;78.65
41254;BME280;26987;59.928;30.306;2023-06-05T02:46:28;101364.69;;;13.29;76.43
41254;BME280;26987;59.928;30.306;2023-06-05T02:48:56;101370.28;;;13.41;75.54
41254;BME280;26987;59.928;30.306;2023-06-05T02:51:23;101371.75;;;13.43;74.41
41254;BME280;26987;59.928;30.306;2023-06-05T02:53:52;101378.38;;;14.07;70.98
41254;BME280;26987;59.928;30.306;2023-06-05T02:56:20;101375.78;;;14.97;66.66
41254;BME280;26987;59.928;30.306;2023-06-05T02:58:48;101368.69;;;15.59;63.02
41254;BME280;26987;59.928;30.306;2023-06-05T03:01:17;101379.31;;;16.59;58.96
41254;BME280;26987;59.928;30.306;2023-06-05T03:03:49;101388.16;;;17.74;53.80
41254;BME280;26987;59.928;30.306;2023-06-05T03:06:19;101380.00;;;17.74;52.27
41254;BME280;26987;59.928;30.306;2023-06-05T03:08:54;101384.16;;;18.06;51.17
41254;BME280;26987;59.928;30.306;2023-06-05T03:11:23;101388.44;;;18.77;47.97
41254;BME280;26987;59.928;30.306;2023-06-05T03:13:52;101388.59;;;18.88;47.40
41254;BME280;26987;59.928;30.306;2023-06-05T03:16:20;101380.84;;;18.97;46.83
41254;BME280;26987;59.928;30.306;2023-06-05T03:18:54;101388.09;;;19.25;46.53
41254;BME280;26987;59.928;30.306;2023-06-05T03:21:22;101373.72;;;19.08;46.55
41254;BME280;26987;59.928;30.306;2023-06-05T03:23:50;101368.44;;;18.84;46.87
41254;BME280;26987;59.928;30.306;2023-06-05T03:26:19;101378.00;;;19.43;45.15
41254;BME280;26987;59.928;30.306;2023-06-05T03:28:49;101375.66;;;20.19;42.24
41254;BME280;26987;59.928;30.306;2023-06-05T03:31:18;101388.16;;;21.13;39.07
41254;BME280;26987;59.928;30.306;2023-06-05T03:33:48;101375.19;;;21.85;36.95
41254;BME280;26987;59.928;30.306;2023-06-05T03:36:19;101393.63;;;22.67;36.25
41254;BME280;26987;59.928;30.306;2023-06-05T03:38:49;101383.75;;;23.03;37.95
41254;BME280;26987;59.928;30.306;2023-06-05T03:41:18;101384.94;;;23.73;37.17
41254;BME280;26987;59.928;30.306;2023-06-05T03:43:46;101380.63;;;24.12;35.47
41254;BME280;26987;59.928;30.306;2023-06-05T03:46:16;101377.31;;;24.21;35.50
41254;BME280;26987;59.928;30.306;2023-06-05T03:48:47;101385.16;;;24.33;35.28
41254;BME280;26987;59.928;30.306;2023-06-05T03:51:16;101383.09;;;24.54;35.11
41254;BME280;26987;59.928;30.306;2023-06-05T03:53:47;101377.47;;;24.40;35.78
41254;BME280;26987;59.928;30.306;2023-06-05T03:56:21;101392.44;;;24.88;34.88
41254;BME280;26987;59.928;30.306;2023-06-05T03:58:50;101387.25;;;25.84;34.09
41254;BME280;26987;59.928;30.306;2023-06-05T04:01:18;101387.19;;;26.09;33.24
41254;BME280;26987;59.928;30.306;2023-06-05T04:03:46;101385.91;;;26.39;32.40
41254;BME280;26987;59.928;30.306;2023-06-05T04:06:14;101394.75;;;25.78;33.03
41254;BME280;26987;59.928;30.306;2023-06-05T04:08:42;101378.56;;;25.77;33.44
41254;BME280;26987;59.928;30.306;2023-06-05T04:11:12;101390.25;;;24.50;35.33
41254;BME280;26987;59.928;30.306;2023-06-05T04:13:40;101378.59;;;22.80;38.45
41254;BME280;26987;59.928;30.306;2023-06-05T04:16:08;101387.16;;;21.78;40.30
41254;BME280;26987;59.928;30.306;2023-06-05T04:18:38;101381.38;;;20.83;42.47
41254;BME280;26987;59.928;30.306;2023-06-05T04:21:05;101374.16;;;20.34;43.76
41254;BME280;26987;59.928;30.306;2023-06-05T04:23:34;101364.81;;;19.74;45.45
41254;BME280;26987;59.928;30.306;2023-06-05T04:26:02;101365.03;;;19.28;46.26
41254;BME280;26987;59.928;30.306;2023-06-05T04:28:32;101369.00;;;18.86;47.77
41254;BME280;26987;59.928;30.306;2023-06-05T04:31:01;101373.13;;;18.71;48.21
41254;BME280;26987;59.928;30.306;2023-06-05T04:33:29;101372.03;;;18.38;49.29
41254;BME280;26987;59.928;30.306;2023-06-05T04:35:57;101376.09;;;17.82;50.29
41254;BME280;26987;59.928;30.306;2023-06-05T04:38:25;101380.44;;;17.42;51.90
41254;BME280;26987;59.928;30.306;2023-06-05T04:40:54;101384.09;;;17.12;53.42
41254;BME280;26987;59.928;30.306;2023-06-05T04:43:22;101392.44;;;16.98;54.82
41254;BME280;26987;59.928;30.306;2023-06-05T04:45:52;101385.09;;;16.87;55.69
41254;BME280;26987;59.928;30.306;2023-06-05T04:48:21;101391.41;;;16.57;57.06
41254;BME280;26987;59.928;30.306;2023-06-05T04:50:49;101393.91;;;16.27;58.64
41254;BME280;26987;59.928;30.306;2023-06-05T04:53:19;101385.88;;;16.21;59.66
41254;BME280;26987;59.928;30.306;2023-06-05T04:55:48;101388.94;;;16.24;59.89
41254;BME280;26987;59.928;30.306;2023-06-05T04:58:18;101390.00;;;16.23;59.86
41254;BME280;26987;59.928;30.306;2023-06-05T05:00:47;101385.88;;;16.21;58.94
41254;BME280;26987;59.928;30.306;2023-06-05T05:03:18;101385.75;;;16.16;59.38
41254;BME280;26987;59.928;30.306;2023-06-05T05:05:47;101394.16;;;16.07;59.19
41254;BME280;26987;59.928;30.306;2023-06-05T05:08:15;101391.22;;;16.09;59.24
41254;BME280;26987;59.928;30.306;2023-06-05T05:10:43;101388.25;;;15.98;59.76
41254;BME280;26987;59.928;30.306;2023-06-05T05:13:11;101387.47;;;15.91;60.52
41254;BME280;26987;59.928;30.306;2023-06-05T05:15:39;101379.69;;;15.83;60.56
41254;BME280;26987;59.928;30.306;2023-06-05T05:18:08;101375.59;;;15.92;60.39
41254;BME280;26987;59.928;30.306;2023-06-05T05:20:37;101382.75;;;15.86;60.52
41254;BME280;26987;59.928;30.306;2023-06-05T05:23:07;101373.06;;;15.60;60.55
41254;BME280;26987;59.928;30.306;2023-06-05T05:25:37;101375.91;;;15.65;60.96
41254;BME280;26987;59.928;30.306;2023-06-05T05:28:05;101349.63;;;15.72;60.06
41254;BME280;26987;59.928;30.306;2023-06-05T05:30:34;101374.25;;;16.01;59.31
41254;BME280;26987;59.928;30.306;2023-06-05T05:33:03;101372.19;;;16.46;57.68
41254;BME280;26987;59.928;30.306;2023-06-05T05:35:31;101375.34;;;16.98;55.39
41254;BME280;26987;59.928;30.306;2023-06-05T05:38:01;101323.91;;;17.22;53.67
41254;BME280;26987;59.928;30.306;2023-06-05T05:40:29;101364.34;;;17.76;52.11
41254;BME280;26987;59.928;30.306;2023-06-05T05:42:56;101352.63;;;17.88;50.69
41254;BME280;26987;59.928;30.306;2023-06-05T05:45:24;101355.25;;;18.12;49.60
41254;BME280;26987;59.928;30.306;2023-06-05T05:47:52;101360.66;;;18.24;49.30
41254;BME280;26987;59.928;30.306;2023-06-05T05:50:20;101365.81;;;18.25;49.03
41254;BME280;26987;59.928;30.306;2023-06-05T05:52:48;101362.94;;;18.61;48.19
41254;BME280;26987;59.928;30.306;2023-06-05T05:55:19;101365.44;;;19.02;47.25
41254;BME280;26987;59.928;30.306;2023-06-05T05:57:47;101361.88;;;19.81;44.68
41254;BME280;26987;59.928;30.306;2023-06-05T06:00:16;101358.19;;;21.72;40.01
41254;BME280;26987;59.928;30.306;2023-06-05T06:02:44;101370.25;;;23.53;36.31
41254;BME280;26987;59.928;30.306;2023-06-05T06:05:13;101374.06;;;24.53;33.95
41254;BME280;26987;59.928;30.306;2023-06-05T06:07:41;101376.22;;;25.16;32.59
41254;BME280;26987;59.928;30.306;2023-06-05T06:10:09;101378.50;;;25.09;32.13
41254;BME280;26987;59.928;30.306;2023-06-05T06:12:39;101369.59;;;25.47;31.90
41254;BME280;26987;59.928;30.306;2023-06-05T06:15:08;101390.97;;;25.93;30.93
41254;BME280;26987;59.928;30.306;2023-06-05T06:17:36;101395.72;;;26.07;30.61
41254;BME280;26987;59.928;30.306;2023-06-05T06:20:05;101398.53;;;26.21;30.43
41254;BME280;26987;59.928;30.306;2023-06-05T06:22:35;101376.19;;;26.09;30.12
41254;BME280;26987;59.928;30.306;2023-06-05T06:25:03;101392.72;;;26.23;30.27
41254;BME280;26987;59.928;30.306;2023-06-05T06:27:31;101401.94;;;26.51;29.87
41254;BME280;26987;59.928;30.306;2023-06-05T06:30:00;101394.72;;;26.55;29.78
41254;BME280;26987;59.928;30.306;2023-06-05T06:32:28;101404.63;;;25.99;30.30
41254;BME280;26987;59.928;30.306;2023-06-05T06:34:57;101397.63;;;24.89;31.59
41254;BME280;26987;59.928;30.306;2023-06-05T06:37:26;101399.66;;;25.57;30.60
41254;BME280;26987;59.928;30.306;2023-06-05T06:39:54;101403.31;;;25.72;30.44
41254;BME280;26987;59.928;30.306;2023-06-05T06:42:22;101405.72;;;26.17;29.92
41254;BME280;26987;59.928;30.306;2023-06-05T06:45:01;101402.25;;;26.30;29.79
41254;BME280;26987;59.928;30.306;2023-06-05T06:47:31;101397.69;;;25.63;30.82
41254;BME280;26987;59.928;30.306;2023-06-05T06:49:59;101392.63;;;24.62;31.82
41254;BME280;26987;59.928;30.306;2023-06-05T06:52:27;101394.41;;;23.25;33.80
41254;BME280;26987;59.928;30.306;2023-06-05T06:54:54;101394.41;;;22.47;35.07
41254;BME280;26987;59.928;30.306;2023-06-05T06:57:22;101392.78;;;22.56;35.70
41254;BME280;26987;59.928;30.306;2023-06-05T06:59:50;101389.78;;;22.89;34.36
41254;BME280;26987;59.928;30.306;2023-06-05T07:02:23;101381.88;;;22.98;34.90
41254;BME280;26987;59.928;30.306;2023-06-05T07:04:51;101390.31;;;23.17;34.48
41254;BME280;26987;59.928;30.306;2023-06-05T07:07:21;101389.88;;;23.71;33.61
41254;BME280;26987;59.928;30.306;2023-06-05T07:09:49;101394.13;;;23.27;34.09
41254;BME280;26987;59.928;30.306;2023-06-05T07:12:18;101390.88;;;22.62;35.07
41254;BME280;26987;59.928;30.306;2023-06-05T07:14:49;101380.47;;;22.43;35.67
41254;BME280;26987;59.928;30.306;2023-06-05T07:17:17;101389.97;;;22.04;35.37
41254;BME280;26987;59.928;30.306;2023-06-05T07:19:46;101381.66;;;21.73;36.19
41254;BME280;26987;59.928;30.306;2023-06-05T07:22:14;101377.72;;;21.43;36.86
41254;BME280;26987;59.928;30.306;2023-06-05T07:24:42;101379.50;;;21.22;37.49
41254;BME280;26987;59.928;30.306;2023-06-05T07:27:10;101383.16;;;21.00;38.08
41254;BME280;26987;59.928;30.306;2023-06-05T07:29:38;101391.09;;;20.69;38.37
41254;BME280;26987;59.928;30.306;2023-06-05T07:32:06;101377.91;;;20.55;38.73
41254;BME280;26987;59.928;30.306;2023-06-05T07:34:34;101375.97;;;20.00;39.42
41254;BME280;26987;59.928;30.306;2023-06-05T07:37:04;101351.66;;;19.66;39.61
41254;BME280;26987;59.928;30.306;2023-06-05T07:39:34;101384.53;;;19.64;36.74
41254;BME280;26987;59.928;30.306;2023-06-05T07:42:02;101376.97;;;19.27;36.84
41254;BME280;26987;59.928;30.306;2023-06-05T07:44:30;101373.38;;;19.21;35.91
41254;BME280;26987;59.928;30.306;2023-06-05T07:46:58;101392.94;;;19.23;35.94
41254;BME280;26987;59.928;30.306;2023-06-05T07:49:28;101371.97;;;19.19;36.60
41254;BME280;26987;59.928;30.306;2023-06-05T07:51:56;101399.41;;;19.17;36.91
41254;BME280;26987;59.928;30.306;2023-06-05T07:54:26;101387.38;;;19.13;36.98
41254;BME280;26987;59.928;30.306;2023-06-05T07:56:53;101383.41;;;19.03;37.42
41254;BME280;26987;59.928;30.306;2023-06-05T07:59:23;101387.31;;;19.08;37.33
41254;BME280;26987;59.928;30.306;2023-06-05T08:01:54;101388.59;;;18.88;36.78
41254;BME280;26987;59.928;30.306;2023-06-05T08:04:22;101360.28;;;18.49;37.73
41254;BME280;26987;59.928;30.306;2023-06-05T08:06:51;101389.91;;;18.68;38.05
41254;BME280;26987;59.928;30.306;2023-06-05T08:09:19;101373.75;;;18.44;38.27
41254;BME280;26987;59.928;30.306;2023-06-05T08:11:48;101399.34;;;18.31;38.98
41254;BME280;26987;59.928;30.306;2023-06-05T08:14:16;101396.19;;;18.22;38.76
41254;BME280;26987;59.928;30.306;2023-06-05T08:16:44;101401.75;;;18.03;38.93
41254;BME280;26987;59.928;30.306;2023-06-05T08:19:12;101406.69;;;18.07;39.69
41254;BME280;26987;59.928;30.306;2023-06-05T08:21:41;101400.53;;;18.23;40.51
41254;BME280;26987;59.928;30.306;2023-06-05T08:24:09;101376.97;;;18.12;40.62
41254;BME280;26987;59.928;30.306;2023-06-05T08:26:36;101396.44;;;18.09;41.42
41254;BME280;26987;59.928;30.306;2023-06-05T08:29:06;101408.09;;;18.21;40.77
41254;BME280;26987;59.928;30.306;2023-06-05T08:31:33;101403.25;;;18.23;40.75
41254;BME280;26987;59.928;30.306;2023-06-05T08:34:02;101401.69;;;18.27;40.03
41254;BME280;26987;59.928;30.306;2023-06-05T08:36:30;101394.44;;;18.16;39.75
41254;BME280;26987;59.928;30.306;2023-06-05T08:39:01;101393.00;;;18.13;38.29
41254;BME280;26987;59.928;30.306;2023-06-05T08:41:29;101399.63;;;18.06;38.29
41254;BME280;26987;59.928;30.306;2023-06-05T08:43:58;101392.63;;;18.22;38.73
41254;BME280;26987;59.928;30.306;2023-06-05T08:46:28;101410.00;;;18.21;38.24
41254;BME280;26987;59.928;30.306;2023-06-05T08:48:57;101409.66;;;18.05;38.39
41254;BME280;26987;59.928;30.306;2023-06-05T08:51:25;101402.25;;;18.00;38.91
41254;BME280;26987;59.928;30.306;2023-06-05T08:54:02;101379.38;;;17.96;38.79
41254;BME280;26987;59.928;30.306;2023-06-05T08:56:30;101374.47;;;18.22;38.52
41254;BME280;26987;59.928;30.306;2023-06-05T08:58:59;101389.22;;;18.44;37.65
41254;BME280;26987;59.928;30.306;2023-06-05T09:01:30;101398.53;;;18.65;36.86
41254;BME280;26987;59.928;30.306;2023-06-05T09:03:59;101388.91;;;18.57;36.22
41254;BME280;26987;59.928;30.306;2023-06-05T09:06:27;101368.50;;;18.37;36.43
41254;BME280;26987;59.928;30.306;2023-06-05T09:08:55;101374.00;;;18.13;37.47
41254;BME280;26987;59.928;30.306;2023-06-05T09:11:24;101381.97;;;18.32;38.26
41254;BME280;26987;59.928;30.306;2023-06-05T09:13:54;101381.47;;;18.35;39.05
41254;BME280;26987;59.928;30.306;2023-06-05T09:16:33;101392.81;;;18.32;38.54
41254;BME280;26987;59.928;30.306;2023-06-05T09:19:02;101382.16;;;18.13;39.44
41254;BME280;26987;59.928;30.306;2023-06-05T09:21:30;101380.47;;;18.24;39.73
41254;BME280;26987;59.928;30.306;2023-06-05T09:24:12;101361.94;;;18.21;40.03
41254;BME280;26987;59.928;30.306;2023-06-05T09:26:53;101383.09;;;18.19;40.72
41254;BME280;26987;59.928;30.306;2023-06-05T09:29:22;101396.44;;;18.21;40.22
41254;BME280;26987;59.928;30.306;2023-06-05T09:31:53;101385.34;;;18.22;39.89
41254;BME280;26987;59.928;30.306;2023-06-05T09:34:22;101309.03;;;17.77;39.83
41254;BME280;26987;59.928;30.306;2023-06-05T09:36:51;101382.44;;;18.29;39.22
41254;BME280;26987;59.928;30.306;2023-06-05T09:39:21;101347.13;;;18.12;39.71
41254;BME280;26987;59.928;30.306;2023-06-05T09:41:51;101386.19;;;18.40;39.50
41254;BME280;26987;59.928;30.306;2023-06-05T09:44:19;101348.91;;;18.06;39.64
41254;BME280;26987;59.928;30.306;2023-06-05T09:46:57;101392.41;;;18.23;40.61
41254;BME280;26987;59.928;30.306;2023-06-05T09:49:27;101376.94;;;17.83;41.03
41254;BME280;26987;59.928;30.306;2023-06-05T09:51:55;101390.38;;;17.77;41.13
41254;BME280;26987;59.928;30.306;2023-06-05T09:54:25;101395.84;;;17.65;42.41
41254;BME280;26987;59.928;30.306;2023-06-05T09:56:57;101388.19;;;17.50;43.07
41254;BME280;26987;59.928;30.306;2023-06-05T09:59:28;101383.38;;;17.52;42.90
41254;BME280;26987;59.928;30.306;2023-06-05T10:02:05;101385.88;;;17.42;43.67
41254;BME280;26987;59.928;30.306;2023-06-05T10:04:36;101386.91;;;17.17;43.85
41254;BME280;26987;59.928;30.306;2023-06-05T10:07:05;101391.25;;;16.94;44.27
41254;BME280;26987;59.928;30.306;2023-06-05T10:09:33;101384.84;;;16.76;44.94
41254;BME280;26987;59.928;30.306;2023-06-05T10:12:06;101395.44;;;16.66;45.30
41254;BME280;26987;59.928;30.306;2023-06-05T10:14:35;101388.94;;;16.55;45.67
41254;BME280;26987;59.928;30.306;2023-06-05T10:17:05;101375.28;;;16.50;45.04
41254;BME280;26987;59.928;30.306;2023-06-05T10:19:33;101383.97;;;16.40;45.14
41254;BME280;26987;59.928;30.306;2023-06-05T10:22:01;101388.69;;;16.57;44.78
41254;BME280;26987;59.928;30.306;2023-06-05T10:24:32;101387.06;;;16.68;44.47
41254;BME280;26987;59.928;30.306;2023-06-05T10:27:14;101395.59;;;16.95;44.83
41254;BME280;26987;59.928;30.306;2023-06-05T10:30:10;101393.84;;;17.01;45.11
41254;BME280;26987;59.928;30.306;2023-06-05T10:32:54;101386.41;;;16.84;45.61
41254;BME280;26987;59.928;30.306;2023-06-05T10:35:40;101392.66;;;16.85;46.00
41254;BME280;26987;59.928;30.306;2023-06-05T10:38:16;101356.28;;;16.38;46.58
41254;BME280;26987;59.928;30.306;2023-06-05T10:40:46;101400.78;;;16.42;46.71
41254;BME280;26987;59.928;30.306;2023-06-05T10:43:24;101382.44;;;16.44;48.54
41254;BME280;26987;59.928;30.306;2023-06-05T10:45:52;101401.69;;;16.36;50.93
41254;BME280;26987;59.928;30.306;2023-06-05T10:48:21;101360.81;;;15.95;52.78
41254;BME280;26987;59.928;30.306;2023-06-05T10:51:33;101406.72;;;16.20;53.15
41254;BME280;26987;59.928;30.306;2023-06-05T10:54:04;101394.28;;;15.94;54.40
41254;BME280;26987;59.928;30.306;2023-06-05T10:56:58;101402.50;;;15.87;54.45
41254;BME280;26987;59.928;30.306;2023-06-05T10:59:28;101397.59;;;15.39;56.40
41254;BME280;26987;59.928;30.306;2023-06-05T11:02:30;101390.94;;;15.42;55.54
41254;BME280;26987;59.928;30.306;2023-06-05T11:05:07;101391.03;;;15.54;54.94
41254;BME280;26987;59.928;30.306;2023-06-05T11:07:36;101397.97;;;15.62;53.64
41254;BME280;26987;59.928;30.306;2023-06-05T11:10:08;101392.81;;;15.60;52.86
41254;BME280;26987;59.928;30.306;2023-06-05T11:12:58;101392.44;;;15.57;52.32
41254;BME280;26987;59.928;30.306;2023-06-05T11:15:40;101395.78;;;15.33;52.71
41254;BME280;26987;59.928;30.306;2023-06-05T11:18:28;101390.06;;;15.23;52.92
41254;BME280;26987;59.928;30.306;2023-06-05T11:20:58;101384.84;;;15.03;53.48
41254;BME280;26987;59.928;30.306;2023-06-05T11:23:27;101372.13;;;15.10;51.72
41254;BME280;26987;59.928;30.306;2023-06-05T11:25:57;101366.41;;;15.18;51.62
41254;BME280;26987;59.928;30.306;2023-06-05T11:28:41;101367.28;;;15.37;51.17
41254;BME280;26987;59.928;30.306;2023-06-05T11:31:10;101378.75;;;15.51;50.44
41254;BME280;26987;59.928;30.306;2023-06-05T11:33:39;101357.00;;;15.46;50.24
41254;BME280;26987;59.928;30.306;2023-06-05T11:36:09;101367.50;;;15.36;51.32
41254;BME280;26987;59.928;30.306;2023-06-05T11:38:38;101362.56;;;15.33;52.04
41254;BME280;26987;59.928;30.306;2023-06-05T11:41:07;101377.13;;;15.50;51.41
41254;BME280;26987;59.928;30.306;2023-06-05T11:43:42;101380.78;;;15.56;51.38
41254;BME280;26987;59.928;30.306;2023-06-05T11:46:10;101377.34;;;15.49;51.19
41254;BME280;26987;59.928;30.306;2023-06-05T11:48:45;101363.06;;;15.60;51.09
41254;BME280;26987;59.928;30.306;2023-06-05T11:51:14;101370.50;;;15.65;51.02
41254;BME280;26987;59.928;30.306;2023-06-05T11:53:46;101363.91;;;15.61;50.16
41254;BME280;26987;59.928;30.306;2023-06-05T11:56:17;101351.75;;;15.51;51.12
41254;BME280;26987;59.928;30.306;2023-06-05T11:58:44;101341.81;;;15.45;51.39
41254;BME280;26987;59.928;30.306;2023-06-05T12:01:14;101356.72;;;15.36;51.69
41254;BME280;26987;59.928;30.306;2023-06-05T12:03:45;101368.09;;;15.38;51.79
41254;BME280;26987;59.928;30.306;2023-06-05T12:06:14;101325.47;;;15.21;52.17
41254;BME280;26987;59.928;30.306;2023-06-05T12:08:44;101334.34;;;15.29;51.21
41254;BME280;26987;59.928;30.306;2023-06-05T12:11:22;101357.75;;;15.54;51.46
41254;BME280;26987;59.928;30.306;2023-06-05T12:13:52;101357.47;;;15.43;51.76
41254;BME280;26987;59.928;30.306;2023-06-05T12:16:31;101355.50;;;15.50;51.85
41254;BME280;26987;59.928;30.306;2023-06-05T12:18:59;101358.34;;;15.37;51.40
41254;BME280;26987;59.928;30.306;2023-06-05T12:21:29;101357.97;;;15.33;51.62
41254;BME280;26987;59.928;30.306;2023-06-05T12:24:03;101356.72;;;15.36;51.93
41254;BME280;26987;59.928;30.306;2023-06-05T12:29:14;101365.84;;;15.35;51.75
41254;BME280;26987;59.928;30.306;2023-06-05T12:31:42;101364.63;;;15.31;52.37
41254;BME280;26987;59.928;30.306;2023-06-05T12:34:11;101351.31;;;15.36;52.44
41254;BME280;26987;59.928;30.306;2023-06-05T12:36:40;101356.25;;;15.39;52.05
41254;BME280;26987;59.928;30.306;2023-06-05T12:39:10;101358.88;;;15.46;52.04
41254;BME280;26987;59.928;30.306;2023-06-05T12:41:39;101345.38;;;15.46;52.97
41254;BME280;26987;59.928;30.306;2023-06-05T12:44:08;101363.16;;;15.54;53.28
41254;BME280;26987;59.928;30.306;2023-06-05T12:46:36;101363.59;;;15.50;53.43
41254;BME280;26987;59.928;30.306;2023-06-05T12:49:04;101362.78;;;15.50;53.34
41254;BME280;26987;59.928;30.306;2023-06-05T12:51:32;101351.31;;;15.36;53.88
41254;BME280;26987;59.928;30.306;2023-06-05T12:54:02;101367.38;;;15.49;53.90
41254;BME280;26987;59.928;30.306;2023-06-05T12:56:30;101375.63;;;15.55;54.45
41254;BME280;26987;59.928;30.306;2023-06-05T12:59:01;101365.69;;;15.48;54.71